Webb, Alabama
Current Conditions -  °F | °C
As of 2:53 PM on Sunday 23 Nov 2014 (Local Time) from KDHN Reporting Station
Heavy Rain Heavy Rain  
Wind Chill: 64°   Ceiling: 7500
Heat Index: 64°   Visibility: 4mi
Dew Point: 61°   Wind: 10mph
Humidity: 90%   Direction: 230°SW
Pressure: 29.79"   Gusts: 20mph
Location:  31.26°N, 85.27°W
Report Text: KDHN 232053Z 23009G17KT 4SM +RA BR FEW041 OVC075 18/16 A2979 RMK AO2 PK WND 25026/2018 LTG DSNT S RAB01 SLP083 P0005 60033 T01780161 53006
Loading
Personal Weather Stations






























Interactive Weather Map New forecast layout! Learn more

10-Day Weather Forecast

Advertisements
Track Severe Weather on mobile